createdAt,value
2019-05-21T00:02:11.963Z,7.03
2019-05-21T00:04:38.663Z,7.07
2019-05-21T00:07:05.311Z,7.33
2019-05-21T00:09:32.039Z,7.00
2019-05-21T00:11:59.099Z,6.40
2019-05-21T00:14:25.858Z,7.23
2019-05-21T00:16:53.883Z,6.77
2019-05-21T00:19:20.543Z,8.80
2019-05-21T00:21:47.339Z,7.07
2019-05-21T00:24:13.988Z,7.30
2019-05-21T00:26:40.611Z,8.60
2019-05-21T00:29:25.435Z,8.07
2019-05-21T00:32:10.593Z,7.90
2019-05-21T00:34:55.759Z,8.50
2019-05-21T00:37:40.983Z,8.70
2019-05-21T00:40:25.799Z,7.70
2019-05-21T00:42:56.416Z,7.60
2019-05-21T00:45:23.031Z,7.87
2019-05-21T00:47:51.176Z,7.87
2019-05-21T00:50:17.899Z,8.63
2019-05-21T00:52:45.609Z,8.93
2019-05-21T00:55:12.612Z,9.03
2019-05-21T00:57:39.435Z,9.53
2019-05-21T01:00:06.894Z,10.27
2019-05-21T01:02:35.191Z,10.70
2019-05-21T01:05:02.104Z,10.47
2019-05-21T01:07:30.576Z,10.90
2019-05-21T01:09:58.404Z,10.40
2019-05-21T01:12:25.015Z,10.87
2019-05-21T01:14:52.035Z,11.10
2019-05-21T01:17:18.922Z,9.87
2019-05-21T01:19:45.824Z,10.93
2019-05-21T01:22:12.767Z,9.77
2019-05-21T01:24:39.498Z,12.93
2019-05-21T01:27:06.459Z,10.37
2019-05-21T01:29:33.078Z,11.07
2019-05-21T01:31:59.737Z,11.07
2019-05-21T01:34:26.679Z,12.20
2019-05-21T01:36:53.728Z,12.47
2019-05-21T01:39:20.772Z,13.03
2019-05-21T01:41:48.027Z,13.40
2019-05-21T01:44:15.075Z,15.50
2019-05-21T01:46:41.867Z,14.67
2019-05-21T01:49:08.862Z,16.67
2019-05-21T01:51:35.484Z,14.17
2019-05-21T01:54:02.160Z,15.83
2019-05-21T01:56:29.997Z,19.07
2019-05-21T01:58:57.840Z,17.53
2019-05-21T02:01:24.675Z,17.67
2019-05-21T02:03:51.665Z,18.57
2019-05-21T02:06:18.279Z,21.83
2019-05-21T02:08:45.484Z,22.03
2019-05-21T02:11:12.145Z,21.20
2019-05-21T02:13:38.760Z,21.20
2019-05-21T02:16:05.400Z,22.03
2019-05-21T02:18:32.015Z,22.10
2019-05-21T02:21:00.449Z,21.97
2019-05-21T02:23:27.264Z,22.00
2019-05-21T02:25:54.299Z,22.07
2019-05-21T02:28:22.017Z,21.73
2019-05-21T02:30:48.819Z,21.23
2019-05-21T02:33:15.550Z,22.27
2019-05-21T02:35:53.605Z,21.50
2019-05-21T02:38:11.904Z,22.23
2019-05-21T02:40:38.628Z,23.87
2019-05-21T02:43:07.355Z,21.77
2019-05-21T02:45:34.124Z,22.00
2019-05-21T02:48:01.097Z,23.37
2019-05-21T02:50:27.827Z,23.10
2019-05-21T02:52:54.604Z,22.40
2019-05-21T02:55:21.240Z,24.03
2019-05-21T02:57:47.873Z,23.57
2019-05-21T03:00:27.212Z,21.90
2019-05-21T03:02:54.520Z,20.90
2019-05-21T03:05:21.555Z,23.40
2019-05-21T03:07:48.760Z,22.80
2019-05-21T03:10:15.483Z,23.87
2019-05-21T03:12:42.110Z,23.93
2019-05-21T03:15:09.348Z,23.50
2019-05-21T03:17:36.694Z,24.80
2019-05-21T03:20:03.629Z,23.10
2019-05-21T03:22:31.092Z,25.30
2019-05-21T03:25:02.114Z,23.60
2019-05-21T03:27:28.777Z,23.70
2019-05-21T03:29:55.820Z,23.17
2019-05-21T03:32:22.440Z,25.03
2019-05-21T03:34:49.095Z,24.10
2019-05-21T03:37:15.824Z,26.93
2019-05-21T03:39:42.468Z,26.53
2019-05-21T03:42:09.213Z,23.63
2019-05-21T03:44:35.956Z,26.10
2019-05-21T03:47:02.629Z,25.20
2019-05-21T03:49:29.592Z,27.47
2019-05-21T03:51:56.265Z,25.03
2019-05-21T03:54:22.905Z,24.70
2019-05-21T03:56:49.564Z,27.00
2019-05-21T03:59:16.192Z,24.90
2019-05-21T04:01:43.191Z,25.40
2019-05-21T04:04:09.852Z,24.60
2019-05-21T04:06:50.616Z,25.60
2019-05-21T04:09:05.806Z,25.00
2019-05-21T04:11:32.467Z,24.47
2019-05-21T04:13:59.105Z,26.77
2019-05-21T04:16:32.408Z,25.97
2019-05-21T04:19:21.511Z,25.57
2019-05-21T04:21:48.143Z,26.53
2019-05-21T04:24:15.170Z,28.57
2019-05-21T04:26:41.919Z,28.40
2019-05-21T04:29:09.124Z,28.60
2019-05-21T04:31:36.095Z,27.70
2019-05-21T04:34:02.774Z,27.03
2019-05-21T04:36:29.395Z,26.60
2019-05-21T04:38:56.146Z,27.80
2019-05-21T04:41:22.905Z,26.93
2019-05-21T04:43:50.389Z,22.80
2019-05-21T04:46:17.736Z,26.60
2019-05-21T04:48:46.522Z,25.10
2019-05-21T04:51:14.092Z,25.53
2019-05-21T04:53:42.763Z,21.80
2019-05-21T04:56:09.438Z,23.33
2019-05-21T04:58:36.144Z,21.90
2019-05-21T05:01:03.090Z,21.63
2019-05-21T05:03:29.978Z,21.73
2019-05-21T05:05:57.191Z,20.80
2019-05-21T05:08:24.344Z,20.63
2019-05-21T05:10:51.220Z,20.33
2019-05-21T05:13:18.119Z,19.90
2019-05-21T05:15:44.752Z,20.17
2019-05-21T05:18:11.747Z,25.17
2019-05-21T05:20:38.383Z,18.20
2019-05-21T05:23:05.799Z,20.00
2019-05-21T05:25:33.455Z,22.67
2019-05-21T05:28:00.083Z,17.20
2019-05-21T05:30:26.729Z,17.53
2019-05-21T05:32:53.364Z,16.50
2019-05-21T05:35:20.420Z,17.80
2019-05-21T05:37:48.892Z,19.80
2019-05-21T05:40:17.595Z,16.57
2019-05-21T05:42:44.940Z,17.00
2019-05-21T05:45:13.012Z,15.80
2019-05-21T05:47:39.653Z,15.13
2019-05-21T05:50:09.199Z,16.70
2019-05-21T05:52:35.834Z,16.70
2019-05-21T05:55:03.647Z,16.97
2019-05-21T05:57:30.339Z,15.97
2019-05-21T05:59:56.979Z,16.57
2019-05-21T06:02:23.633Z,16.53
2019-05-21T06:04:50.291Z,16.23
2019-05-21T06:07:16.928Z,14.33
2019-05-21T06:09:43.569Z,15.83
2019-05-21T06:12:10.403Z,17.20
2019-05-21T06:14:37.156Z,16.90
2019-05-21T06:17:04.132Z,16.03
2019-05-21T06:19:30.782Z,16.23
2019-05-21T06:21:57.511Z,15.97
2019-05-21T06:24:24.460Z,15.47
2019-05-21T06:26:53.436Z,14.40
2019-05-21T06:29:20.415Z,14.77
2019-05-21T06:31:47.049Z,15.23
2019-05-21T06:34:14.268Z,14.60
2019-05-21T06:36:41.015Z,13.87
2019-05-21T06:39:08.052Z,14.30
2019-05-21T06:41:35.098Z,14.47
2019-05-21T06:44:02.586Z,15.30
2019-05-21T06:46:29.331Z,16.87
2019-05-21T06:48:58.303Z,16.03
2019-05-21T06:51:25.460Z,18.80
2019-05-21T06:53:53.091Z,17.60
2019-05-21T06:56:20.675Z,16.90
2019-05-21T06:58:47.351Z,16.60
2019-05-21T07:01:15.183Z,16.57
2019-05-21T07:03:41.917Z,15.33
2019-05-21T07:06:08.552Z,15.40
2019-05-21T07:08:35.516Z,17.63
2019-05-21T07:11:02.668Z,16.70
2019-05-21T07:13:31.245Z,16.40
2019-05-21T07:16:00.560Z,16.87
2019-05-21T07:18:27.578Z,17.13
2019-05-21T07:20:54.209Z,16.73
2019-05-21T07:23:20.972Z,16.93
2019-05-21T07:25:52.148Z,15.20
2019-05-21T07:28:19.561Z,17.20
2019-05-21T07:30:47.000Z,16.70
2019-05-21T07:33:14.041Z,17.87
2019-05-21T07:35:41.235Z,16.63
2019-05-21T07:38:07.919Z,17.40
2019-05-21T07:40:35.121Z,16.83
2019-05-21T07:43:02.059Z,16.30
2019-05-21T07:45:29.541Z,16.23
2019-05-21T07:47:56.593Z,14.60
2019-05-21T07:50:23.331Z,15.50
2019-05-21T07:52:50.328Z,15.37
2019-05-21T07:55:19.371Z,15.17
2019-05-21T07:57:46.499Z,15.10
2019-05-21T08:00:13.972Z,15.27
2019-05-21T08:02:41.923Z,13.00
2019-05-21T08:05:09.254Z,15.30
2019-05-21T08:07:39.469Z,14.17
2019-05-21T08:10:06.317Z,14.43
2019-05-21T08:12:38.863Z,14.77
2019-05-21T08:15:02.583Z,14.43
2019-05-21T08:17:31.855Z,13.50
2019-05-21T08:20:08.775Z,15.60
2019-05-21T08:22:27.347Z,14.83
2019-05-21T08:24:54.332Z,13.57
2019-05-21T08:27:21.028Z,15.90
2019-05-21T08:29:48.060Z,15.17
2019-05-21T08:32:14.701Z,15.60
2019-05-21T08:34:41.565Z,14.17
2019-05-21T08:37:09.033Z,14.50
2019-05-21T08:39:35.668Z,15.53
2019-05-21T08:42:02.749Z,15.03
2019-05-21T08:44:29.926Z,14.60
2019-05-21T08:46:57.043Z,15.30
2019-05-21T08:49:26.201Z,14.30
2019-05-21T08:51:53.328Z,15.93
2019-05-21T08:54:39.459Z,14.40
2019-05-21T08:57:07.555Z,16.73
2019-05-21T08:59:35.215Z,14.17
2019-05-21T09:02:02.108Z,14.10
2019-05-21T09:07:00.006Z,16.27
2019-05-21T09:07:15.004Z,14.60
2019-05-21T09:09:26.736Z,15.13
2019-05-21T09:11:53.846Z,16.37
2019-05-21T09:14:21.470Z,14.43
2019-05-21T09:16:48.583Z,15.57
2019-05-21T09:19:17.068Z,14.43
2019-05-21T09:21:48.163Z,14.83
2019-05-21T09:24:14.910Z,14.07
2019-05-21T09:26:42.151Z,14.33
2019-05-21T09:29:11.199Z,15.03
2019-05-21T09:31:38.103Z,16.03
2019-05-21T09:34:04.780Z,16.67
2019-05-21T09:36:31.463Z,16.50
2019-05-21T09:38:58.747Z,15.40
2019-05-21T09:41:25.487Z,16.50
2019-05-21T09:43:52.136Z,16.27
2019-05-21T09:46:20.017Z,18.20
2019-05-21T09:48:46.844Z,16.33
2019-05-21T09:51:19.751Z,19.13
2019-05-21T09:53:44.407Z,19.30
2019-05-21T09:56:33.613Z,20.50
2019-05-21T09:59:05.567Z,18.63
2019-05-21T10:01:51.754Z,17.77
2019-05-21T10:04:18.921Z,22.23
2019-05-21T10:06:47.142Z,21.23
2019-05-21T10:09:17.884Z,20.50
2019-05-21T10:11:45.054Z,19.93
2019-05-21T10:14:13.191Z,20.43
2019-05-21T10:16:39.820Z,22.30
2019-05-21T10:19:06.661Z,20.33
2019-05-21T10:21:33.609Z,20.60
2019-05-21T10:24:01.055Z,18.87
2019-05-21T10:26:28.113Z,20.07
2019-05-21T10:28:54.750Z,19.80
2019-05-21T10:31:21.374Z,20.80
2019-05-21T10:33:48.530Z,20.70
2019-05-21T10:36:15.165Z,19.60
2019-05-21T10:38:41.871Z,19.43
2019-05-21T10:41:09.215Z,20.70
2019-05-21T10:43:35.982Z,21.50
2019-05-21T10:46:02.823Z,20.67
2019-05-21T10:48:30.022Z,22.17
2019-05-21T10:50:57.362Z,21.13
2019-05-21T10:53:24.098Z,21.50
2019-05-21T10:55:51.149Z,20.83
2019-05-21T10:58:18.912Z,20.63
2019-05-21T11:00:47.292Z,22.97
2019-05-21T11:03:17.867Z,23.00
2019-05-21T11:05:47.736Z,23.30
2019-05-21T11:08:24.355Z,20.90
2019-05-21T11:10:48.131Z,21.73
2019-05-21T11:13:15.368Z,23.17
2019-05-21T11:15:42.096Z,22.80
2019-05-21T11:18:12.174Z,21.73
2019-05-21T11:20:39.443Z,21.50
2019-05-21T11:23:06.287Z,20.17
2019-05-21T11:25:34.271Z,20.27
2019-05-21T11:28:01.234Z,21.20
2019-05-21T11:30:27.879Z,21.07
2019-05-21T11:32:55.542Z,21.33
2019-05-21T11:35:22.752Z,21.80
2019-05-21T11:37:49.416Z,20.70
2019-05-21T11:40:17.047Z,21.73
2019-05-21T11:42:44.513Z,20.47
2019-05-21T11:45:11.377Z,21.23
2019-05-21T11:47:38.049Z,21.90
2019-05-21T11:50:05.885Z,21.90
2019-05-21T11:52:32.959Z,23.47
2019-05-21T11:55:00.085Z,20.80
2019-05-21T11:57:27.092Z,21.50
2019-05-21T11:59:53.748Z,20.33
2019-05-21T12:02:22.434Z,21.60
2019-05-21T12:04:50.499Z,21.37
2019-05-21T12:07:18.212Z,22.23
2019-05-21T12:09:44.865Z,23.40
2019-05-21T12:12:11.673Z,23.20
2019-05-21T12:14:38.443Z,22.50
2019-05-21T12:17:05.095Z,23.97
2019-05-21T12:19:32.056Z,22.40
2019-05-21T12:21:58.996Z,21.80
2019-05-21T12:24:27.592Z,22.83
2019-05-21T12:26:56.265Z,24.10
2019-05-21T12:29:24.173Z,23.97
2019-05-21T12:31:51.497Z,21.57
2019-05-21T12:34:18.156Z,24.80
2019-05-21T12:36:45.965Z,24.33
2019-05-21T12:39:14.491Z,25.10
2019-05-21T12:41:41.284Z,23.70
2019-05-21T12:44:08.883Z,23.60
2019-05-21T12:46:36.019Z,26.90
2019-05-21T12:49:02.776Z,23.47
2019-05-21T12:51:30.639Z,25.00
2019-05-21T12:53:57.796Z,24.50
2019-05-21T12:56:26.473Z,24.70
2019-05-21T12:58:53.232Z,25.80
2019-05-21T13:01:22.299Z,25.27
2019-05-21T13:03:49.272Z,25.23
2019-05-21T13:06:15.907Z,23.10
2019-05-21T13:08:44.759Z,25.50
2019-05-21T13:11:12.847Z,25.90
2019-05-21T13:13:40.579Z,24.57
2019-05-21T13:16:07.324Z,24.80
2019-05-21T13:18:34.200Z,22.60
2019-05-21T13:21:00.865Z,22.30
2019-05-21T13:23:27.659Z,25.40
2019-05-21T13:25:55.384Z,23.07
2019-05-21T13:28:22.064Z,24.70
2019-05-21T13:30:49.258Z,22.00
2019-05-21T13:33:19.433Z,23.13
2019-05-21T13:35:45.517Z,23.20
2019-05-21T13:38:13.889Z,22.77
2019-05-21T13:40:43.068Z,23.57
2019-05-21T13:43:10.040Z,21.20
2019-05-21T13:45:36.675Z,20.60
2019-05-21T13:48:03.612Z,22.40
2019-05-21T13:50:30.469Z,22.80
2019-05-21T13:52:59.826Z,24.77
2019-05-21T13:55:27.198Z,24.90
2019-05-21T13:57:54.344Z,24.23
2019-05-21T14:00:28.032Z,22.53
2019-05-21T14:02:55.000Z,22.03
2019-05-21T14:05:23.236Z,23.50
2019-05-21T14:07:50.196Z,22.37
2019-05-21T14:10:20.559Z,22.93
2019-05-21T14:12:47.828Z,21.73
2019-05-21T14:15:14.844Z,24.03
2019-05-21T14:17:43.440Z,22.47
2019-05-21T14:20:12.013Z,23.70
2019-05-21T14:22:38.760Z,24.03
2019-05-21T14:25:05.845Z,22.63
2019-05-21T14:27:43.872Z,22.30
2019-05-21T14:30:01.517Z,21.80
2019-05-21T14:32:29.977Z,23.30
2019-05-21T14:35:01.490Z,21.87
2019-05-21T14:37:26.047Z,20.67
2019-05-21T14:39:53.381Z,23.03
2019-05-21T14:42:21.094Z,23.40
2019-05-21T14:44:48.685Z,21.77
2019-05-21T14:47:15.951Z,21.20
2019-05-21T14:49:43.915Z,21.93
2019-05-21T14:52:10.560Z,22.33
2019-05-21T14:54:38.252Z,22.90
2019-05-21T14:57:11.387Z,22.10
2019-05-21T14:59:39.707Z,23.70
2019-05-21T15:02:06.344Z,23.47
2019-05-21T15:04:33.108Z,23.53
2019-05-21T15:07:00.440Z,21.80
2019-05-21T15:09:27.062Z,24.23
2019-05-21T15:11:55.157Z,20.67
2019-05-21T15:14:22.523Z,22.10
2019-05-21T15:16:49.192Z,22.90
2019-05-21T15:19:15.839Z,22.73
2019-05-21T15:21:46.449Z,23.47
2019-05-21T15:24:15.363Z,23.33
2019-05-21T15:26:42.204Z,23.80
2019-05-21T15:29:09.324Z,24.90
2019-05-21T15:31:37.435Z,24.37
2019-05-21T15:34:04.536Z,27.33
2019-05-21T15:36:31.317Z,25.30
2019-05-21T15:38:58.507Z,30.67
2019-05-21T15:41:25.532Z,25.87
2019-05-21T15:43:52.883Z,25.20
2019-05-21T15:46:19.832Z,29.80
2019-05-21T15:48:47.084Z,27.07
2019-05-21T15:51:17.944Z,27.57
2019-05-21T15:53:45.067Z,27.03
2019-05-21T15:56:12.240Z,28.20
2019-05-21T15:58:39.675Z,28.73
2019-05-21T16:01:08.110Z,27.17
2019-05-21T16:03:34.753Z,27.03
2019-05-21T16:06:01.524Z,25.00
2019-05-21T16:08:28.303Z,25.57
2019-05-21T16:10:55.344Z,27.13
2019-05-21T16:13:22.308Z,23.00
2019-05-21T16:15:50.231Z,25.60
2019-05-21T16:18:21.393Z,26.90
2019-05-21T16:20:48.452Z,27.23
2019-05-21T16:23:15.775Z,26.37
2019-05-21T16:25:42.432Z,26.60
2019-05-21T16:28:09.599Z,26.37
2019-05-21T16:30:36.367Z,25.97
2019-05-21T16:33:03.056Z,29.87
2019-05-21T16:35:30.297Z,28.60
2019-05-21T16:37:57.136Z,31.97
2019-05-21T16:40:24.341Z,28.53
2019-05-21T16:42:50.972Z,29.53
2019-05-21T16:45:18.700Z,29.00
2019-05-21T16:47:46.855Z,28.33
2019-05-21T16:50:14.494Z,30.37
2019-05-21T16:52:41.174Z,31.00
2019-05-21T16:55:08.064Z,32.27
2019-05-21T16:57:34.888Z,29.60
2019-05-21T17:00:01.902Z,30.97
2019-05-21T17:02:30.394Z,34.47
2019-05-21T17:04:58.454Z,32.27
2019-05-21T17:07:25.100Z,32.83
2019-05-21T17:09:51.868Z,34.20
2019-05-21T17:12:19.811Z,33.37
2019-05-21T17:14:49.824Z,33.70
2019-05-21T17:17:17.172Z,29.60
2019-05-21T17:19:44.122Z,33.17
2019-05-21T17:22:11.163Z,31.80
2019-05-21T17:24:38.260Z,32.20
2019-05-21T17:27:05.775Z,32.27
2019-05-21T17:29:32.408Z,30.20
2019-05-21T17:31:59.516Z,33.40
2019-05-21T17:34:26.153Z,31.37
2019-05-21T17:36:54.147Z,31.83
2019-05-21T17:39:20.892Z,31.70
2019-05-21T17:41:48.253Z,32.37
2019-05-21T17:44:14.983Z,33.57
2019-05-21T17:46:42.492Z,32.33
2019-05-21T17:49:09.123Z,32.07
2019-05-21T17:51:36.131Z,31.40
2019-05-21T17:54:02.845Z,33.53
2019-05-21T17:56:30.711Z,31.37
2019-05-21T17:58:57.531Z,30.93
2019-05-21T18:01:25.791Z,29.80
2019-05-21T18:03:52.811Z,33.47
2019-05-21T18:06:20.370Z,35.07
2019-05-21T18:08:48.655Z,29.03
2019-05-21T18:11:16.616Z,31.47
2019-05-21T18:13:43.524Z,28.30
2019-05-21T18:16:11.603Z,30.00
2019-05-21T18:18:38.632Z,28.40
2019-05-21T18:21:07.275Z,27.53
2019-05-21T18:23:35.170Z,29.33
2019-05-21T18:26:02.856Z,30.27
2019-05-21T18:28:29.695Z,30.07
2019-05-21T18:30:56.383Z,30.80
2019-05-21T18:33:23.919Z,26.80
2019-05-21T18:35:50.578Z,32.50
2019-05-21T18:38:18.826Z,28.33
2019-05-21T18:40:45.736Z,30.13
2019-05-21T18:43:12.451Z,28.97
2019-05-21T18:45:39.261Z,27.73
2019-05-21T18:48:06.513Z,27.97
2019-05-21T18:50:36.642Z,28.23
2019-05-21T18:53:03.784Z,27.13
2019-05-21T18:55:31.715Z,21.97
2019-05-21T18:57:58.831Z,26.30
2019-05-21T19:00:27.997Z,26.20
2019-05-21T19:02:55.283Z,26.70
2019-05-21T19:05:22.012Z,27.67
2019-05-21T19:07:49.190Z,27.30
2019-05-21T19:10:16.600Z,25.70
2019-05-21T19:12:43.998Z,23.97
2019-05-21T19:15:11.064Z,24.90
2019-05-21T19:17:37.790Z,24.03
2019-05-21T19:20:04.888Z,24.43
2019-05-21T19:22:31.871Z,20.40
2019-05-21T19:24:58.492Z,21.20
2019-05-21T19:27:25.491Z,19.13
2019-05-21T19:29:52.626Z,20.80
2019-05-21T19:32:21.275Z,21.13
2019-05-21T19:34:48.092Z,20.20
2019-05-21T19:37:14.892Z,22.40
2019-05-21T19:39:41.548Z,22.10
2019-05-21T19:42:09.760Z,21.00
2019-05-21T19:44:36.940Z,19.17
2019-05-21T19:47:04.553Z,18.17
2019-05-21T19:49:31.492Z,17.97
2019-05-21T19:51:59.979Z,17.97
2019-05-21T19:54:26.606Z,16.50
2019-05-21T19:56:53.926Z,15.40
2019-05-21T19:59:20.744Z,13.10
2019-05-21T20:01:48.779Z,14.80
2019-05-21T20:04:17.600Z,14.20
2019-05-21T20:06:44.601Z,13.93
2019-05-21T20:09:16.533Z,12.57
2019-05-21T20:11:43.623Z,9.80
2019-05-21T20:14:10.376Z,9.50
2019-05-21T20:16:39.272Z,8.70
2019-05-21T20:19:08.896Z,8.67
2019-05-21T20:21:37.095Z,8.40
2019-05-21T20:24:05.807Z,7.20
2019-05-21T20:26:33.908Z,6.67
2019-05-21T20:29:00.937Z,5.50
2019-05-21T20:31:29.424Z,5.47
2019-05-21T20:33:56.399Z,5.43
2019-05-21T20:36:23.522Z,4.50
2019-05-21T20:38:52.260Z,3.40
2019-05-21T20:41:19.154Z,3.67
2019-05-21T20:43:58.622Z,3.30
2019-05-21T20:46:15.616Z,3.67
2019-05-21T20:48:43.059Z,4.97
2019-05-21T20:51:09.810Z,4.10
2019-05-21T20:53:37.563Z,4.13
2019-05-21T20:56:06.419Z,4.23
2019-05-21T20:58:34.583Z,4.10
2019-05-21T21:01:03.644Z,4.23
2019-05-21T21:03:30.951Z,4.50
2019-05-21T21:05:58.178Z,4.03
2019-05-21T21:08:28.162Z,4.10
2019-05-21T21:10:55.130Z,4.83
2019-05-21T21:13:23.368Z,4.27
2019-05-21T21:15:50.563Z,4.70
2019-05-21T21:18:17.331Z,5.00
2019-05-21T21:20:44.543Z,3.67
2019-05-21T21:23:11.772Z,4.30
2019-05-21T21:25:40.049Z,5.03
2019-05-21T21:28:08.923Z,4.13
2019-05-21T21:30:36.068Z,5.50
2019-05-21T21:33:04.956Z,5.23
2019-05-21T21:35:32.102Z,4.73
2019-05-21T21:38:00.508Z,4.40
2019-05-21T21:40:27.455Z,3.73
2019-05-21T21:42:54.815Z,3.80
2019-05-21T21:45:21.573Z,3.90
2019-05-21T21:47:48.571Z,3.43
2019-05-21T21:50:16.421Z,4.30
2019-05-21T21:52:43.845Z,3.67
2019-05-21T21:55:11.198Z,3.33
2019-05-21T21:57:38.407Z,3.27
2019-05-21T22:00:08.445Z,3.70
2019-05-21T22:02:36.411Z,4.40
2019-05-21T22:05:05.914Z,4.77
2019-05-21T22:07:34.936Z,3.63
2019-05-21T22:10:01.828Z,4.40
2019-05-21T22:12:29.311Z,4.90
2019-05-21T22:14:57.675Z,4.90
2019-05-21T22:17:24.796Z,4.50
2019-05-21T22:19:51.691Z,5.03
2019-05-21T22:22:18.380Z,4.53
2019-05-21T22:24:45.023Z,4.60
2019-05-21T22:27:12.022Z,4.67
2019-05-21T22:29:39.294Z,3.83
2019-05-21T22:32:06.040Z,4.20
2019-05-21T22:34:33.295Z,4.77
2019-05-21T22:36:59.927Z,4.93
2019-05-21T22:39:29.111Z,4.23
2019-05-21T22:41:55.951Z,4.40
2019-05-21T22:44:22.611Z,5.63
2019-05-21T22:46:50.161Z,5.07
2019-05-21T22:49:16.992Z,4.07
2019-05-21T22:51:44.715Z,4.10
2019-05-21T22:54:11.455Z,5.20
2019-05-21T22:56:38.612Z,6.20
2019-05-21T22:59:06.319Z,5.60
2019-05-21T23:01:34.748Z,5.30
2019-05-21T23:04:01.458Z,4.67
2019-05-21T23:06:28.101Z,4.60
2019-05-21T23:08:54.854Z,4.53
2019-05-21T23:11:23.177Z,4.50
2019-05-21T23:13:51.747Z,4.87
2019-05-21T23:16:20.192Z,3.63
2019-05-21T23:19:06.336Z,4.00
2019-05-21T23:21:38.830Z,3.93
2019-05-21T23:24:12.604Z,3.10
2019-05-21T23:26:39.610Z,4.10
2019-05-21T23:29:07.152Z,4.27
2019-05-21T23:31:33.905Z,4.73
2019-05-21T23:34:01.074Z,4.30
2019-05-21T23:36:28.508Z,5.40
2019-05-21T23:38:56.092Z,5.60
2019-05-21T23:41:23.847Z,5.30
2019-05-21T23:43:52.616Z,5.87
2019-05-21T23:46:19.672Z,6.30
2019-05-21T23:48:46.303Z,5.20
2019-05-21T23:51:12.941Z,6.00
2019-05-21T23:53:40.407Z,4.97
2019-05-21T23:56:07.459Z,4.00
2019-05-21T23:58:36.143Z,5.57
